sensor_id;sensor_type;location;lat;lon;timestamp;temperature;humidity
38938;DHT22;24727;51.974;20.868;2022-09-21T00:00:49;9.30;99.90
38938;DHT22;24727;51.974;20.868;2022-09-21T00:03:15;9.30;99.90
38938;DHT22;24727;51.974;20.868;2022-09-21T00:05:41;9.30;99.90
38938;DHT22;24727;51.974;20.868;2022-09-21T00:08:09;9.30;99.90
38938;DHT22;24727;51.974;20.868;2022-09-21T00:10:35;9.30;99.90
38938;DHT22;24727;51.974;20.868;2022-09-21T00:13:01;9.40;99.90
38938;DHT22;24727;51.974;20.868;2022-09-21T00:15:28;9.40;99.90
38938;DHT22;24727;51.974;20.868;2022-09-21T00:17:55;9.40;99.90
38938;DHT22;24727;51.974;20.868;2022-09-21T00:20:23;9.40;99.90
38938;DHT22;24727;51.974;20.868;2022-09-21T00:22:50;9.40;99.90
38938;DHT22;24727;51.974;20.868;2022-09-21T00:25:16;9.40;99.90
38938;DHT22;24727;51.974;20.868;2022-09-21T00:27:42;9.40;99.90
38938;DHT22;24727;51.974;20.868;2022-09-21T00:30:09;9.40;99.90
38938;DHT22;24727;51.974;20.868;2022-09-21T00:32:37;9.40;99.90
38938;DHT22;24727;51.974;20.868;2022-09-21T00:35:05;9.40;99.90
38938;DHT22;24727;51.974;20.868;2022-09-21T00:37:33;9.40;99.90
38938;DHT22;24727;51.974;20.868;2022-09-21T00:39:58;9.40;99.90
38938;DHT22;24727;51.974;20.868;2022-09-21T00:42:27;9.40;99.90
38938;DHT22;24727;51.974;20.868;2022-09-21T00:44:54;9.40;99.90
38938;DHT22;24727;51.974;20.868;2022-09-21T00:47:41;9.40;99.90
38938;DHT22;24727;51.974;20.868;2022-09-21T00:50:11;9.40;99.90
38938;DHT22;24727;51.974;20.868;2022-09-21T00:52:50;9.40;99.90
38938;DHT22;24727;51.974;20.868;2022-09-21T00:55:24;9.40;99.90
38938;DHT22;24727;51.974;20.868;2022-09-21T00:57:53;9.40;99.90
38938;DHT22;24727;51.974;20.868;2022-09-21T01:00:19;9.40;99.90
38938;DHT22;24727;51.974;20.868;2022-09-21T01:02:45;9.40;99.90
38938;DHT22;24727;51.974;20.868;2022-09-21T01:05:11;9.40;99.90
38938;DHT22;24727;51.974;20.868;2022-09-21T01:07:42;9.40;99.90
38938;DHT22;24727;51.974;20.868;2022-09-21T01:10:11;9.40;99.90
38938;DHT22;24727;51.974;20.868;2022-09-21T01:29:25;9.40;99.90
38938;DHT22;24727;51.974;20.868;2022-09-21T01:32:03;9.40;99.90
38938;DHT22;24727;51.974;20.868;2022-09-21T01:34:41;9.40;99.90
38938;DHT22;24727;51.974;20.868;2022-09-21T01:37:13;9.40;99.90
38938;DHT22;24727;51.974;20.868;2022-09-21T01:39:44;9.40;99.90
38938;DHT22;24727;51.974;20.868;2022-09-21T01:42:13;9.40;99.90
38938;DHT22;24727;51.974;20.868;2022-09-21T01:44:42;9.40;99.90
38938;DHT22;24727;51.974;20.868;2022-09-21T01:47:10;9.40;99.90
38938;DHT22;24727;51.974;20.868;2022-09-21T01:49:54;9.40;99.90
38938;DHT22;24727;51.974;20.868;2022-09-21T01:54:55;9.40;99.90
38938;DHT22;24727;51.974;20.868;2022-09-21T02:00:03;9.30;99.90
38938;DHT22;24727;51.974;20.868;2022-09-21T02:02:40;9.40;99.90
38938;DHT22;24727;51.974;20.868;2022-09-21T02:05:07;9.40;99.90
38938;DHT22;24727;51.974;20.868;2022-09-21T02:07:33;9.30;99.90
38938;DHT22;24727;51.974;20.868;2022-09-21T02:10:01;9.30;99.90
38938;DHT22;24727;51.974;20.868;2022-09-21T02:12:27;9.30;99.90
38938;DHT22;24727;51.974;20.868;2022-09-21T02:14:56;9.30;99.90
38938;DHT22;24727;51.974;20.868;2022-09-21T02:20:19;9.30;99.90
38938;DHT22;24727;51.974;20.868;2022-09-21T02:26:18;9.30;99.90
38938;DHT22;24727;51.974;20.868;2022-09-21T02:28:52;9.30;99.90
38938;DHT22;24727;51.974;20.868;2022-09-21T02:34:00;9.30;99.90
38938;DHT22;24727;51.974;20.868;2022-09-21T02:36:32;9.20;99.90
38938;DHT22;24727;51.974;20.868;2022-09-21T02:39:10;9.20;99.90
38938;DHT22;24727;51.974;20.868;2022-09-21T02:41:47;9.20;99.90
38938;DHT22;24727;51.974;20.868;2022-09-21T02:44:23;9.20;99.90
38938;DHT22;24727;51.974;20.868;2022-09-21T02:46:58;9.20;99.90
38938;DHT22;24727;51.974;20.868;2022-09-21T02:49:31;9.20;99.90
38938;DHT22;24727;51.974;20.868;2022-09-21T02:52:03;9.20;99.90
38938;DHT22;24727;51.974;20.868;2022-09-21T02:54:31;9.20;99.90
38938;DHT22;24727;51.974;20.868;2022-09-21T02:56:59;9.20;99.90
38938;DHT22;24727;51.974;20.868;2022-09-21T02:59:27;9.20;99.90
38938;DHT22;24727;51.974;20.868;2022-09-21T03:01:53;9.20;99.90
38938;DHT22;24727;51.974;20.868;2022-09-21T03:04:21;9.20;99.90
38938;DHT22;24727;51.974;20.868;2022-09-21T03:06:47;9.20;99.90
38938;DHT22;24727;51.974;20.868;2022-09-21T03:09:13;9.20;99.90
38938;DHT22;24727;51.974;20.868;2022-09-21T03:11:38;9.20;99.90
38938;DHT22;24727;51.974;20.868;2022-09-21T03:14:07;9.20;99.90
38938;DHT22;24727;51.974;20.868;2022-09-21T03:16:34;9.20;99.90
38938;DHT22;24727;51.974;20.868;2022-09-21T03:19:00;9.20;99.90
38938;DHT22;24727;51.974;20.868;2022-09-21T03:21:26;9.20;99.90
38938;DHT22;24727;51.974;20.868;2022-09-21T03:23:52;9.20;99.90
38938;DHT22;24727;51.974;20.868;2022-09-21T03:26:17;9.20;99.90
38938;DHT22;24727;51.974;20.868;2022-09-21T03:28:47;9.10;99.90
38938;DHT22;24727;51.974;20.868;2022-09-21T03:31:14;9.20;99.90
38938;DHT22;24727;51.974;20.868;2022-09-21T03:33:40;9.20;99.90
38938;DHT22;24727;51.974;20.868;2022-09-21T03:36:06;9.10;99.90
38938;DHT22;24727;51.974;20.868;2022-09-21T03:38:32;9.10;99.90
38938;DHT22;24727;51.974;20.868;2022-09-21T03:40:58;9.10;99.90
38938;DHT22;24727;51.974;20.868;2022-09-21T03:43:25;9.20;99.90
38938;DHT22;24727;51.974;20.868;2022-09-21T03:45:51;9.20;99.90
38938;DHT22;24727;51.974;20.868;2022-09-21T03:48:17;9.10;99.90
38938;DHT22;24727;51.974;20.868;2022-09-21T03:50:43;9.20;99.90
38938;DHT22;24727;51.974;20.868;2022-09-21T03:53:09;9.10;99.90
38938;DHT22;24727;51.974;20.868;2022-09-21T03:55:35;9.10;99.90
38938;DHT22;24727;51.974;20.868;2022-09-21T03:58:01;9.20;99.90
38938;DHT22;24727;51.974;20.868;2022-09-21T04:00:27;9.20;99.90
38938;DHT22;24727;51.974;20.868;2022-09-21T04:02:54;9.20;99.90
38938;DHT22;24727;51.974;20.868;2022-09-21T04:05:20;9.20;99.90
38938;DHT22;24727;51.974;20.868;2022-09-21T04:07:47;9.20;99.90
38938;DHT22;24727;51.974;20.868;2022-09-21T04:10:17;9.20;99.90
38938;DHT22;24727;51.974;20.868;2022-09-21T04:12:45;9.20;99.90
38938;DHT22;24727;51.974;20.868;2022-09-21T04:15:16;9.20;99.90
38938;DHT22;24727;51.974;20.868;2022-09-21T04:17:44;9.20;99.90
38938;DHT22;24727;51.974;20.868;2022-09-21T04:20:11;9.20;99.90
38938;DHT22;24727;51.974;20.868;2022-09-21T04:22:37;9.20;99.90
38938;DHT22;24727;51.974;20.868;2022-09-21T04:25:04;9.20;99.90
38938;DHT22;24727;51.974;20.868;2022-09-21T04:27:31;9.20;99.90
38938;DHT22;24727;51.974;20.868;2022-09-21T04:29:57;9.20;99.90
38938;DHT22;24727;51.974;20.868;2022-09-21T04:32:23;9.20;99.90
38938;DHT22;24727;51.974;20.868;2022-09-21T04:34:49;9.20;99.90
38938;DHT22;24727;51.974;20.868;2022-09-21T04:37:16;9.20;99.90
38938;DHT22;24727;51.974;20.868;2022-09-21T04:39:42;9.20;99.90
38938;DHT22;24727;51.974;20.868;2022-09-21T04:42:08;9.20;99.90
38938;DHT22;24727;51.974;20.868;2022-09-21T04:44:34;9.30;99.90
38938;DHT22;24727;51.974;20.868;2022-09-21T04:47:00;9.20;99.90
38938;DHT22;24727;51.974;20.868;2022-09-21T04:49:26;9.20;99.90
38938;DHT22;24727;51.974;20.868;2022-09-21T04:51:52;9.30;99.90
38938;DHT22;24727;51.974;20.868;2022-09-21T04:54:18;9.30;99.90
38938;DHT22;24727;51.974;20.868;2022-09-21T04:56:43;9.30;99.90
38938;DHT22;24727;51.974;20.868;2022-09-21T04:59:09;9.30;99.90
38938;DHT22;24727;51.974;20.868;2022-09-21T05:01:35;9.30;99.90
38938;DHT22;24727;51.974;20.868;2022-09-21T05:04:01;9.30;99.90
38938;DHT22;24727;51.974;20.868;2022-09-21T05:06:31;9.30;99.90
38938;DHT22;24727;51.974;20.868;2022-09-21T05:08:58;9.30;99.90
38938;DHT22;24727;51.974;20.868;2022-09-21T05:11:43;9.30;99.90
38938;DHT22;24727;51.974;20.868;2022-09-21T05:14:09;9.30;99.90
38938;DHT22;24727;51.974;20.868;2022-09-21T05:16:36;9.30;99.90
38938;DHT22;24727;51.974;20.868;2022-09-21T05:19:02;9.40;99.90
38938;DHT22;24727;51.974;20.868;2022-09-21T05:21:28;9.40;99.90
38938;DHT22;24727;51.974;20.868;2022-09-21T05:23:56;9.40;99.90
38938;DHT22;24727;51.974;20.868;2022-09-21T05:26:23;9.40;99.90
38938;DHT22;24727;51.974;20.868;2022-09-21T05:28:49;9.40;99.90
38938;DHT22;24727;51.974;20.868;2022-09-21T05:31:38;9.40;99.90
38938;DHT22;24727;51.974;20.868;2022-09-21T05:34:35;9.40;99.90
38938;DHT22;24727;51.974;20.868;2022-09-21T05:37:16;9.40;99.90
38938;DHT22;24727;51.974;20.868;2022-09-21T05:39:46;9.50;99.90
38938;DHT22;24727;51.974;20.868;2022-09-21T05:42:12;9.40;99.90
38938;DHT22;24727;51.974;20.868;2022-09-21T05:44:38;9.50;99.90
38938;DHT22;24727;51.974;20.868;2022-09-21T05:47:45;9.50;99.90
38938;DHT22;24727;51.974;20.868;2022-09-21T05:54:18;9.60;99.90
38938;DHT22;24727;51.974;20.868;2022-09-21T05:56:42;9.60;99.90
38938;DHT22;24727;51.974;20.868;2022-09-21T06:02:21;9.60;99.90
38938;DHT22;24727;51.974;20.868;2022-09-21T06:04:50;9.60;99.90
38938;DHT22;24727;51.974;20.868;2022-09-21T06:07:18;9.70;99.90
38938;DHT22;24727;51.974;20.868;2022-09-21T06:09:44;9.70;99.90
38938;DHT22;24727;51.974;20.868;2022-09-21T06:12:10;9.70;99.90
38938;DHT22;24727;51.974;20.868;2022-09-21T06:14:36;9.80;99.90
38938;DHT22;24727;51.974;20.868;2022-09-21T06:17:02;9.80;99.90
38938;DHT22;24727;51.974;20.868;2022-09-21T06:19:28;9.80;99.90
38938;DHT22;24727;51.974;20.868;2022-09-21T06:21:54;9.90;99.90
38938;DHT22;24727;51.974;20.868;2022-09-21T06:24:20;9.90;98.60
38938;DHT22;24727;51.974;20.868;2022-09-21T06:26:45;10.00;99.20
38938;DHT22;24727;51.974;20.868;2022-09-21T06:29:11;10.00;99.10
38938;DHT22;24727;51.974;20.868;2022-09-21T06:31:38;10.10;99.00
38938;DHT22;24727;51.974;20.868;2022-09-21T06:34:05;10.10;98.50
38938;DHT22;24727;51.974;20.868;2022-09-21T06:36:31;10.10;97.70
38938;DHT22;24727;51.974;20.868;2022-09-21T06:38:56;10.10;97.30
38938;DHT22;24727;51.974;20.868;2022-09-21T06:41:22;10.20;95.80
38938;DHT22;24727;51.974;20.868;2022-09-21T06:43:51;10.20;96.30
38938;DHT22;24727;51.974;20.868;2022-09-21T06:46:17;10.30;95.40
38938;DHT22;24727;51.974;20.868;2022-09-21T06:48:43;10.30;94.40
38938;DHT22;24727;51.974;20.868;2022-09-21T06:51:09;10.30;94.40
38938;DHT22;24727;51.974;20.868;2022-09-21T06:53:35;10.30;94.10
38938;DHT22;24727;51.974;20.868;2022-09-21T06:56:05;10.30;93.90
38938;DHT22;24727;51.974;20.868;2022-09-21T06:58:32;10.30;93.50
38938;DHT22;24727;51.974;20.868;2022-09-21T07:01:06;10.30;93.20
38938;DHT22;24727;51.974;20.868;2022-09-21T07:03:33;10.30;93.90
38938;DHT22;24727;51.974;20.868;2022-09-21T07:05:59;10.40;93.70
38938;DHT22;24727;51.974;20.868;2022-09-21T07:08:25;10.40;90.70
38938;DHT22;24727;51.974;20.868;2022-09-21T07:10:52;10.50;91.00
38938;DHT22;24727;51.974;20.868;2022-09-21T07:13:18;10.60;90.10
38938;DHT22;24727;51.974;20.868;2022-09-21T07:15:44;10.70;90.40
38938;DHT22;24727;51.974;20.868;2022-09-21T07:18:11;10.70;88.20
38938;DHT22;24727;51.974;20.868;2022-09-21T07:20:38;10.90;90.00
38938;DHT22;24727;51.974;20.868;2022-09-21T07:23:12;11.20;87.00
38938;DHT22;24727;51.974;20.868;2022-09-21T07:25:42;11.20;82.80
38938;DHT22;24727;51.974;20.868;2022-09-21T07:28:09;11.20;83.30
38938;DHT22;24727;51.974;20.868;2022-09-21T07:30:38;11.10;81.30
38938;DHT22;24727;51.974;20.868;2022-09-21T07:33:04;11.10;81.00
38938;DHT22;24727;51.974;20.868;2022-09-21T07:35:31;11.10;80.00
38938;DHT22;24727;51.974;20.868;2022-09-21T07:37:57;11.20;79.90
38938;DHT22;24727;51.974;20.868;2022-09-21T07:40:23;11.20;79.90
38938;DHT22;24727;51.974;20.868;2022-09-21T07:42:49;11.20;81.20
38938;DHT22;24727;51.974;20.868;2022-09-21T07:45:15;11.30;79.40
38938;DHT22;24727;51.974;20.868;2022-09-21T07:47:41;11.40;77.90
38938;DHT22;24727;51.974;20.868;2022-09-21T07:50:07;11.40;75.40
38938;DHT22;24727;51.974;20.868;2022-09-21T07:52:34;11.50;79.10
38938;DHT22;24727;51.974;20.868;2022-09-21T07:55:00;11.80;79.80
38938;DHT22;24727;51.974;20.868;2022-09-21T07:57:26;12.20;77.60
38938;DHT22;24727;51.974;20.868;2022-09-21T08:00:12;12.40;73.50
38938;DHT22;24727;51.974;20.868;2022-09-21T08:02:38;12.00;70.50
38938;DHT22;24727;51.974;20.868;2022-09-21T08:05:04;11.80;72.20
38938;DHT22;24727;51.974;20.868;2022-09-21T08:07:29;11.60;74.80
38938;DHT22;24727;51.974;20.868;2022-09-21T08:09:55;11.60;76.00
38938;DHT22;24727;51.974;20.868;2022-09-21T08:12:22;11.40;73.10
38938;DHT22;24727;51.974;20.868;2022-09-21T08:14:48;11.40;73.30
38938;DHT22;24727;51.974;20.868;2022-09-21T08:17:14;11.50;73.40
38938;DHT22;24727;51.974;20.868;2022-09-21T08:19:40;11.80;71.60
38938;DHT22;24727;51.974;20.868;2022-09-21T08:22:06;11.80;70.50
38938;DHT22;24727;51.974;20.868;2022-09-21T08:24:32;11.70;67.30
38938;DHT22;24727;51.974;20.868;2022-09-21T08:27:01;11.70;68.30
38938;DHT22;24727;51.974;20.868;2022-09-21T08:29:27;11.70;66.30
38938;DHT22;24727;51.974;20.868;2022-09-21T08:31:53;11.80;66.60
38938;DHT22;24727;51.974;20.868;2022-09-21T08:34:19;11.90;64.00
38938;DHT22;24727;51.974;20.868;2022-09-21T08:36:46;12.10;65.30
38938;DHT22;24727;51.974;20.868;2022-09-21T08:39:12;12.10;59.20
38938;DHT22;24727;51.974;20.868;2022-09-21T08:42:08;12.20;63.30
38938;DHT22;24727;51.974;20.868;2022-09-21T08:45:03;12.20;51.90
38938;DHT22;24727;51.974;20.868;2022-09-21T08:50:38;12.30;1.00
38938;DHT22;24727;51.974;20.868;2022-09-21T08:53:17;12.30;1.00
38938;DHT22;24727;51.974;20.868;2022-09-21T08:55:44;12.20;1.00
38938;DHT22;24727;51.974;20.868;2022-09-21T08:58:23;12.40;1.00
38938;DHT22;24727;51.974;20.868;2022-09-21T09:06:24;12.10;1.00
38938;DHT22;24727;51.974;20.868;2022-09-21T09:09:23;12.20;1.00
38938;DHT22;24727;51.974;20.868;2022-09-21T09:12:04;12.10;1.00
38938;DHT22;24727;51.974;20.868;2022-09-21T09:20:23;12.50;1.00
38938;DHT22;24727;51.974;20.868;2022-09-21T09:23:26;12.50;1.00
38938;DHT22;24727;51.974;20.868;2022-09-21T09:25:55;12.40;1.00
38938;DHT22;24727;51.974;20.868;2022-09-21T09:28:33;12.40;1.00
38938;DHT22;24727;51.974;20.868;2022-09-21T09:31:27;12.50;1.00
38938;DHT22;24727;51.974;20.868;2022-09-21T09:33:59;12.70;1.00
38938;DHT22;24727;51.974;20.868;2022-09-21T09:36:30;12.60;1.00
38938;DHT22;24727;51.974;20.868;2022-09-21T09:39:03;12.70;1.00
38938;DHT22;24727;51.974;20.868;2022-09-21T09:48:04;12.80;1.00
38938;DHT22;24727;51.974;20.868;2022-09-21T09:50:29;12.80;1.00
38938;DHT22;24727;51.974;20.868;2022-09-21T09:53:13;12.60;1.00
38938;DHT22;24727;51.974;20.868;2022-09-21T09:55:47;12.60;1.00
38938;DHT22;24727;51.974;20.868;2022-09-21T09:58:22;12.80;1.00
38938;DHT22;24727;51.974;20.868;2022-09-21T10:00:52;13.20;1.00
38938;DHT22;24727;51.974;20.868;2022-09-21T10:03:21;13.40;1.00
38938;DHT22;24727;51.974;20.868;2022-09-21T10:05:48;13.20;1.00
38938;DHT22;24727;51.974;20.868;2022-09-21T10:08:27;12.90;1.00
38938;DHT22;24727;51.974;20.868;2022-09-21T10:10:53;12.60;1.00
38938;DHT22;24727;51.974;20.868;2022-09-21T10:13:32;12.50;1.00
38938;DHT22;24727;51.974;20.868;2022-09-21T10:16:21;12.50;1.00
38938;DHT22;24727;51.974;20.868;2022-09-21T10:18:58;12.50;1.00
38938;DHT22;24727;51.974;20.868;2022-09-21T10:21:36;12.60;1.00
38938;DHT22;24727;51.974;20.868;2022-09-21T10:24:13;12.90;1.00
38938;DHT22;24727;51.974;20.868;2022-09-21T10:26:47;13.00;1.00
38938;DHT22;24727;51.974;20.868;2022-09-21T10:34:22;12.90;1.00
38938;DHT22;24727;51.974;20.868;2022-09-21T10:36:50;13.00;1.00
38938;DHT22;24727;51.974;20.868;2022-09-21T10:39:26;13.00;1.00
38938;DHT22;24727;51.974;20.868;2022-09-21T10:42:02;13.20;1.00
38938;DHT22;24727;51.974;20.868;2022-09-21T10:44:39;13.20;1.00
38938;DHT22;24727;51.974;20.868;2022-09-21T10:49:51;13.30;1.00
38938;DHT22;24727;51.974;20.868;2022-09-21T10:52:21;13.50;1.00
38938;DHT22;24727;51.974;20.868;2022-09-21T10:54:51;13.40;1.00
38938;DHT22;24727;51.974;20.868;2022-09-21T10:57:22;13.80;1.00
38938;DHT22;24727;51.974;20.868;2022-09-21T10:59:49;13.60;1.00
38938;DHT22;24727;51.974;20.868;2022-09-21T11:02:35;13.70;1.00
38938;DHT22;24727;51.974;20.868;2022-09-21T11:05:28;13.90;1.00
38938;DHT22;24727;51.974;20.868;2022-09-21T11:08:04;14.30;1.00
38938;DHT22;24727;51.974;20.868;2022-09-21T11:13:34;14.10;1.00
38938;DHT22;24727;51.974;20.868;2022-09-21T11:21:43;13.70;1.00
38938;DHT22;24727;51.974;20.868;2022-09-21T11:27:24;13.70;1.00
38938;DHT22;24727;51.974;20.868;2022-09-21T11:30:17;13.80;1.00
38938;DHT22;24727;51.974;20.868;2022-09-21T11:44:20;12.50;1.00
38938;DHT22;24727;51.974;20.868;2022-09-21T11:53:18;12.60;1.00
38938;DHT22;24727;51.974;20.868;2022-09-21T11:56:11;12.80;1.00
38938;DHT22;24727;51.974;20.868;2022-09-21T12:04:19;13.30;1.00
38938;DHT22;24727;51.974;20.868;2022-09-21T13:09:24;12.90;1.00
38938;DHT22;24727;51.974;20.868;2022-09-21T13:38:25;13.70;1.00
38938;DHT22;24727;51.974;20.868;2022-09-21T13:41:05;13.40;1.00
38938;DHT22;24727;51.974;20.868;2022-09-21T13:49:24;10.80;1.00
38938;DHT22;24727;51.974;20.868;2022-09-21T13:52:04;10.60;15.80
38938;DHT22;24727;51.974;20.868;2022-09-21T13:54:44;10.50;41.70
38938;DHT22;24727;51.974;20.868;2022-09-21T14:00:23;10.70;54.50
38938;DHT22;24727;51.974;20.868;2022-09-21T14:05:29;10.80;79.50
38938;DHT22;24727;51.974;20.868;2022-09-21T14:08:50;10.80;89.30
38938;DHT22;24727;51.974;20.868;2022-09-21T14:11:20;10.80;91.50
38938;DHT22;24727;51.974;20.868;2022-09-21T14:14:19;10.90;91.80
38938;DHT22;24727;51.974;20.868;2022-09-21T14:16:50;10.90;92.40
38938;DHT22;24727;51.974;20.868;2022-09-21T14:24:41;11.00;90.40
38938;DHT22;24727;51.974;20.868;2022-09-21T14:27:38;11.00;90.10
38938;DHT22;24727;51.974;20.868;2022-09-21T14:30:25;11.00;89.60
38938;DHT22;24727;51.974;20.868;2022-09-21T14:33:10;11.10;90.40
38938;DHT22;24727;51.974;20.868;2022-09-21T14:35:40;11.20;90.80
38938;DHT22;24727;51.974;20.868;2022-09-21T14:38:22;11.30;91.60
38938;DHT22;24727;51.974;20.868;2022-09-21T14:40:50;11.40;91.90
38938;DHT22;24727;51.974;20.868;2022-09-21T14:43:23;11.50;89.50
38938;DHT22;24727;51.974;20.868;2022-09-21T14:51:52;11.70;75.70
38938;DHT22;24727;51.974;20.868;2022-09-21T14:57:30;11.80;7.40
38938;DHT22;24727;51.974;20.868;2022-09-21T15:00:21;11.90;1.70
38938;DHT22;24727;51.974;20.868;2022-09-21T15:05:54;12.00;1.00
38938;DHT22;24727;51.974;20.868;2022-09-21T15:16:44;12.00;1.00
38938;DHT22;24727;51.974;20.868;2022-09-21T15:19:14;12.00;1.00
38938;DHT22;24727;51.974;20.868;2022-09-21T15:21:45;12.00;1.00
38938;DHT22;24727;51.974;20.868;2022-09-21T15:24:27;12.00;1.00
38938;DHT22;24727;51.974;20.868;2022-09-21T15:27:13;12.00;1.00
38938;DHT22;24727;51.974;20.868;2022-09-21T15:29:53;12.00;1.00
38938;DHT22;24727;51.974;20.868;2022-09-21T15:32:41;12.00;1.00
38938;DHT22;24727;51.974;20.868;2022-09-21T15:35:23;12.00;1.00
38938;DHT22;24727;51.974;20.868;2022-09-21T15:37:51;12.10;1.00
38938;DHT22;24727;51.974;20.868;2022-09-21T15:40:22;12.00;1.00
38938;DHT22;24727;51.974;20.868;2022-09-21T15:43:15;12.10;1.00
38938;DHT22;24727;51.974;20.868;2022-09-21T15:45:56;12.10;1.00
38938;DHT22;24727;51.974;20.868;2022-09-21T15:48:29;12.10;1.00
38938;DHT22;24727;51.974;20.868;2022-09-21T15:53:52;12.00;1.00
38938;DHT22;24727;51.974;20.868;2022-09-21T15:56:24;11.90;1.00
38938;DHT22;24727;51.974;20.868;2022-09-21T15:58:57;11.90;1.00
38938;DHT22;24727;51.974;20.868;2022-09-21T16:01:24;11.80;1.00
38938;DHT22;24727;51.974;20.868;2022-09-21T16:04:02;11.70;1.00
38938;DHT22;24727;51.974;20.868;2022-09-21T16:06:38;11.70;1.00
38938;DHT22;24727;51.974;20.868;2022-09-21T16:11:59;11.70;1.00
38938;DHT22;24727;51.974;20.868;2022-09-21T16:14:25;11.60;1.00
38938;DHT22;24727;51.974;20.868;2022-09-21T16:19:42;11.60;1.00
38938;DHT22;24727;51.974;20.868;2022-09-21T16:22:11;11.50;1.00
38938;DHT22;24727;51.974;20.868;2022-09-21T16:24:59;11.50;1.00
38938;DHT22;24727;51.974;20.868;2022-09-21T16:27:30;11.40;1.00
38938;DHT22;24727;51.974;20.868;2022-09-21T16:29:57;11.50;1.00
38938;DHT22;24727;51.974;20.868;2022-09-21T16:32:32;11.40;1.00
38938;DHT22;24727;51.974;20.868;2022-09-21T16:35:25;11.30;1.00
38938;DHT22;24727;51.974;20.868;2022-09-21T16:37:58;11.30;1.00
38938;DHT22;24727;51.974;20.868;2022-09-21T16:40:26;11.30;1.00
38938;DHT22;24727;51.974;20.868;2022-09-21T16:42:52;11.30;1.00
38938;DHT22;24727;51.974;20.868;2022-09-21T16:45:29;11.20;1.00
38938;DHT22;24727;51.974;20.868;2022-09-21T16:47:58;11.20;1.00
38938;DHT22;24727;51.974;20.868;2022-09-21T16:50:24;11.30;1.00
38938;DHT22;24727;51.974;20.868;2022-09-21T16:52:51;11.30;1.00
38938;DHT22;24727;51.974;20.868;2022-09-21T16:55:20;11.30;1.00
38938;DHT22;24727;51.974;20.868;2022-09-21T16:57:47;11.30;1.00
38938;DHT22;24727;51.974;20.868;2022-09-21T17:00:16;11.30;1.00
38938;DHT22;24727;51.974;20.868;2022-09-21T17:02:46;11.40;1.00
38938;DHT22;24727;51.974;20.868;2022-09-21T17:05:13;11.30;1.00
38938;DHT22;24727;51.974;20.868;2022-09-21T17:08:03;11.30;1.00
38938;DHT22;24727;51.974;20.868;2022-09-21T17:10:42;11.30;1.00
38938;DHT22;24727;51.974;20.868;2022-09-21T17:13:10;11.30;1.00
38938;DHT22;24727;51.974;20.868;2022-09-21T17:15:42;11.30;1.00
38938;DHT22;24727;51.974;20.868;2022-09-21T17:18:10;11.30;1.00
38938;DHT22;24727;51.974;20.868;2022-09-21T17:20:39;11.20;1.00
38938;DHT22;24727;51.974;20.868;2022-09-21T17:23:06;11.20;1.00
38938;DHT22;24727;51.974;20.868;2022-09-21T17:25:34;11.10;1.00
38938;DHT22;24727;51.974;20.868;2022-09-21T17:28:14;11.10;1.00
38938;DHT22;24727;51.974;20.868;2022-09-21T17:30:42;11.00;1.00
38938;DHT22;24727;51.974;20.868;2022-09-21T17:33:11;10.90;1.80
38938;DHT22;24727;51.974;20.868;2022-09-21T17:35:41;10.90;15.70
38938;DHT22;24727;51.974;20.868;2022-09-21T17:38:07;10.80;28.70
38938;DHT22;24727;51.974;20.868;2022-09-21T17:40:34;10.80;29.30
38938;DHT22;24727;51.974;20.868;2022-09-21T17:43:25;10.80;27.50
38938;DHT22;24727;51.974;20.868;2022-09-21T17:46:21;10.70;41.00
38938;DHT22;24727;51.974;20.868;2022-09-21T17:48:48;10.70;54.00
38938;DHT22;24727;51.974;20.868;2022-09-21T17:51:14;10.70;57.20
38938;DHT22;24727;51.974;20.868;2022-09-21T17:54:01;10.80;56.70
38938;DHT22;24727;51.974;20.868;2022-09-21T17:56:46;10.90;26.50
38938;DHT22;24727;51.974;20.868;2022-09-21T17:59:26;11.00;1.00
38938;DHT22;24727;51.974;20.868;2022-09-21T18:01:54;10.90;12.60
38938;DHT22;24727;51.974;20.868;2022-09-21T18:04:25;10.80;31.20
38938;DHT22;24727;51.974;20.868;2022-09-21T18:06:53;10.80;40.20
38938;DHT22;24727;51.974;20.868;2022-09-21T18:09:19;10.80;38.20
38938;DHT22;24727;51.974;20.868;2022-09-21T18:13:01;10.90;35.10
38938;DHT22;24727;51.974;20.868;2022-09-21T18:23:46;10.70;58.50
38938;DHT22;24727;51.974;20.868;2022-09-21T18:26:15;10.70;57.70
38938;DHT22;24727;51.974;20.868;2022-09-21T18:28:44;10.60;59.30
38938;DHT22;24727;51.974;20.868;2022-09-21T18:53:22;10.50;50.10
38938;DHT22;24727;51.974;20.868;2022-09-21T18:55:50;10.50;49.10
38938;DHT22;24727;51.974;20.868;2022-09-21T18:58:17;10.50;45.60
38938;DHT22;24727;51.974;20.868;2022-09-21T19:00:43;10.60;46.70
38938;DHT22;24727;51.974;20.868;2022-09-21T19:03:12;10.60;42.30
38938;DHT22;24727;51.974;20.868;2022-09-21T19:05:56;10.60;39.60
38938;DHT22;24727;51.974;20.868;2022-09-21T19:14:08;10.60;42.80
38938;DHT22;24727;51.974;20.868;2022-09-21T19:19:57;10.50;51.30
38938;DHT22;24727;51.974;20.868;2022-09-21T19:22:44;10.40;50.70
38938;DHT22;24727;51.974;20.868;2022-09-21T19:25:51;10.40;55.00
38938;DHT22;24727;51.974;20.868;2022-09-21T19:31:14;10.30;66.50
38938;DHT22;24727;51.974;20.868;2022-09-21T19:33:42;10.30;70.30
38938;DHT22;24727;51.974;20.868;2022-09-21T19:36:11;10.30;73.00
38938;DHT22;24727;51.974;20.868;2022-09-21T19:38:37;10.20;74.80
38938;DHT22;24727;51.974;20.868;2022-09-21T19:49:48;10.20;80.00
38938;DHT22;24727;51.974;20.868;2022-09-21T19:52:17;10.20;80.50
38938;DHT22;24727;51.974;20.868;2022-09-21T19:54:44;10.20;80.90
38938;DHT22;24727;51.974;20.868;2022-09-21T19:57:29;10.20;82.10
38938;DHT22;24727;51.974;20.868;2022-09-21T20:00:15;10.20;83.60
38938;DHT22;24727;51.974;20.868;2022-09-21T20:03:02;10.20;85.10
38938;DHT22;24727;51.974;20.868;2022-09-21T20:08:54;10.20;86.30
38938;DHT22;24727;51.974;20.868;2022-09-21T20:11:45;10.20;88.50
38938;DHT22;24727;51.974;20.868;2022-09-21T20:14:41;10.20;88.60
38938;DHT22;24727;51.974;20.868;2022-09-21T20:17:13;10.10;89.80
38938;DHT22;24727;51.974;20.868;2022-09-21T20:20:23;10.10;90.30
38938;DHT22;24727;51.974;20.868;2022-09-21T20:22:51;10.10;90.60
38938;DHT22;24727;51.974;20.868;2022-09-21T20:25:36;10.20;90.90
38938;DHT22;24727;51.974;20.868;2022-09-21T20:28:04;10.10;91.30
38938;DHT22;24727;51.974;20.868;2022-09-21T20:30:33;10.20;91.80
38938;DHT22;24727;51.974;20.868;2022-09-21T20:33:15;10.10;92.00
38938;DHT22;24727;51.974;20.868;2022-09-21T20:35:50;10.20;92.20
38938;DHT22;24727;51.974;20.868;2022-09-21T20:38:20;10.20;92.30
38938;DHT22;24727;51.974;20.868;2022-09-21T20:40:47;10.10;92.60
38938;DHT22;24727;51.974;20.868;2022-09-21T20:43:14;10.10;93.00
38938;DHT22;24727;51.974;20.868;2022-09-21T20:45:40;10.10;93.10